Time;durP1;ratioP1;P1;durP2;ratioP2;P2;SDS_P1;SDS_P2;PMS_P1;PMS_P2;Temp;Humidity;BMP_temperature;BMP_pressure;BME280_temperature;BME280_humidity;BME280_pressure;Samples;Min_cycle;Max_cycle;Signal;HPM_P1;HPM_P2
2022/12/15 04:01:34;;;;;;;26.20;12.98;;;-1.90;99.90;;;;;;6156451;23;19939;-83
2022/12/15 04:04:01;;;;;;;28.63;14.48;;;-2.00;99.90;;;;;;6139188;23;20013;-83
2022/12/15 04:06:27;;;;;;;33.83;13.82;;;-2.00;99.90;;;;;;6189833;23;20055;-83
2022/12/15 04:08:53;;;;;;;34.28;14.25;;;-2.00;99.90;;;;;;6189951;23;20338;-83
2022/12/15 04:11:18;;;;;;;30.52;12.73;;;-2.00;99.90;;;;;;6189932;23;20009;-81
2022/12/15 04:13:44;;;;;;;29.67;13.40;;;-2.00;99.90;;;;;;6163175;23;20023;-82
2022/12/15 04:16:10;;;;;;;27.08;12.68;;;-2.10;99.90;;;;;;6189932;23;20316;-81
2022/12/15 04:18:36;;;;;;;30.63;13.15;;;-2.10;99.90;;;;;;6163112;23;20013;-83
2022/12/15 04:21:02;;;;;;;25.92;11.70;;;-2.10;99.90;;;;;;6189494;23;20009;-84
2022/12/15 04:23:27;;;;;;;23.08;11.48;;;-2.10;99.90;;;;;;6162578;23;20087;-82
2022/12/15 05:32:07;;;;;;;24.83;11.60;;;-1.60;99.90;;;;;;6160860;23;20021;-83
2022/12/15 05:34:33;;;;;;;24.50;11.80;;;-1.60;99.90;;;;;;6187877;23;20036;-82
2022/12/15 05:37:01;;;;;;;23.23;11.15;;;-1.70;99.90;;;;;;6188350;23;20016;-82
2022/12/15 05:39:27;;;;;;;23.73;12.18;;;-1.70;99.90;;;;;;6161771;23;20020;-82
2022/12/15 05:41:55;;;;;;;30.10;12.20;;;-1.70;99.90;;;;;;6161255;23;20050;-81
2022/12/15 05:44:22;;;;;;;28.63;11.60;;;-1.70;99.90;;;;;;6188606;23;20017;-80
2022/12/15 05:46:48;;;;;;;21.98;10.55;;;-1.70;99.90;;;;;;6190140;23;20040;-83
2022/12/15 05:49:15;;;;;;;26.48;13.05;;;-1.70;99.90;;;;;;6161436;23;20343;-82
2022/12/15 05:51:42;;;;;;;25.00;11.70;;;-1.70;99.90;;;;;;6161271;23;20017;-83
2022/12/15 05:54:09;;;;;;;31.10;11.82;;;-1.70;99.90;;;;;;6161829;23;20320;-83
2022/12/15 05:56:35;;;;;;;25.52;12.10;;;-1.70;99.90;;;;;;6137053;23;20020;-82
2022/12/15 05:59:01;;;;;;;27.17;12.30;;;-1.70;99.90;;;;;;6161612;23;20019;-81
2022/12/15 06:01:29;;;;;;;26.90;12.02;;;-1.70;99.90;;;;;;6136657;23;20446;-81
2022/12/15 06:03:55;;;;;;;23.80;11.85;;;-1.70;99.90;;;;;;6162060;23;20021;-84
2022/12/15 06:06:21;;;;;;;26.48;11.40;;;-1.70;99.90;;;;;;6160825;23;20040;-83
2022/12/15 06:08:46;;;;;;;25.70;12.63;;;-1.70;99.90;;;;;;6187753;23;20021;-81
2022/12/15 06:11:14;;;;;;;22.23;10.60;;;-1.70;99.90;;;;;;6186852;23;20380;-82
2022/12/15 06:13:40;;;;;;;30.92;12.55;;;-1.70;99.90;;;;;;6161542;23;20095;-83
2022/12/15 06:16:10;;;;;;;28.77;12.40;;;-1.70;99.90;;;;;;6161943;23;20295;-82
2022/12/15 06:18:38;;;;;;;25.25;11.77;;;-1.70;99.90;;;;;;6161634;23;20059;-84
2022/12/15 06:21:08;;;;;;;25.25;11.98;;;-1.70;99.90;;;;;;6162209;23;20040;-83
2022/12/15 06:23:34;;;;;;;24.00;11.00;;;-1.70;99.90;;;;;;6162206;23;20076;-83
2022/12/15 06:26:08;;;;;;;25.60;11.60;;;-1.70;99.90;;;;;;6188445;23;20017;-83
2022/12/15 06:28:34;;;;;;;9.40;5.03;;;-1.70;99.90;;;;;;6188327;23;20009;-81
2022/12/15 06:31:04;;;;;;;28.23;12.18;;;-1.70;99.90;;;;;;6161589;23;20386;-83
2022/12/15 06:33:30;;;;;;;29.55;12.20;;;-1.60;99.90;;;;;;6187209;23;20451;-83
2022/12/15 06:35:55;;;;;;;23.15;11.65;;;-1.60;99.90;;;;;;6161256;23;20028;-83
2022/12/15 06:38:21;;;;;;;26.45;10.85;;;-1.50;99.90;;;;;;6161159;23;20013;-82
2022/12/15 06:40:58;;;;;;;20.08;9.43;;;-1.50;99.90;;;;;;6159879;23;20081;-83
2022/12/15 06:43:25;;;;;;;24.73;11.10;;;-1.40;99.90;;;;;;6160489;23;20399;-82
2022/12/15 06:45:51;;;;;;;27.38;11.48;;;-1.40;99.90;;;;;;6186496;23;20080;-83
2022/12/15 06:48:18;;;;;;;25.50;11.70;;;-1.30;99.90;;;;;;6186879;23;20280;-83
2022/12/15 06:50:44;;;;;;;24.25;10.73;;;-1.30;99.90;;;;;;6186467;23;20012;-83
2022/12/15 06:53:16;;;;;;;24.30;12.05;;;-1.40;99.90;;;;;;6186221;23;20049;-83
2022/12/15 06:55:42;;;;;;;22.88;11.20;;;-1.40;99.90;;;;;;6186868;23;20017;-83
2022/12/15 06:58:09;;;;;;;24.48;10.32;;;-1.40;99.90;;;;;;6159987;23;20017;-83
2022/12/15 07:00:35;;;;;;;24.38;11.00;;;-1.40;99.90;;;;;;6186463;23;20023;-82
2022/12/15 07:03:02;;;;;;;26.05;11.70;;;-1.40;99.90;;;;;;6160991;23;20044;-82
2022/12/15 07:05:31;;;;;;;21.63;10.55;;;-1.40;99.90;;;;;;6161297;23;20027;-83
2022/12/15 07:07:56;;;;;;;22.15;10.73;;;-1.30;99.90;;;;;;6135461;23;20350;-82
2022/12/15 07:10:22;;;;;;;25.52;11.13;;;-1.40;99.90;;;;;;6159286;23;20009;-79
2022/12/15 07:12:48;;;;;;;19.08;10.52;;;-1.30;99.90;;;;;;6160177;23;20021;-83
2022/12/15 07:15:13;;;;;;;26.33;11.02;;;-1.40;99.90;;;;;;6158845;23;20104;-81
2022/12/15 07:17:39;;;;;;;23.15;10.35;;;-1.40;99.90;;;;;;6159187;23;20013;-85
2022/12/15 07:20:06;;;;;;;27.58;11.57;;;-1.40;99.90;;;;;;6160354;23;20063;-86
2022/12/15 07:22:32;;;;;;;17.58;8.35;;;-1.30;99.90;;;;;;6160592;23;20088;-84
2022/12/15 07:25:01;;;;;;;20.05;8.57;;;-1.30;99.90;;;;;;6161578;23;20382;-85
2022/12/15 07:27:26;;;;;;;20.23;9.48;;;-1.40;99.90;;;;;;6137719;23;20023;-83
2022/12/15 07:29:52;;;;;;;24.20;10.35;;;-1.30;99.90;;;;;;6188202;23;20028;-82
2022/12/15 07:32:19;;;;;;;20.75;10.00;;;-1.30;99.90;;;;;;6161311;23;20081;-84
2022/12/15 07:34:44;;;;;;;20.13;9.85;;;-1.30;99.90;;;;;;6136999;23;20013;-77
2022/12/15 07:37:13;;;;;;;23.25;10.70;;;-1.30;99.90;;;;;;6136183;23;20059;-82
2022/12/15 07:39:39;;;;;;;24.13;10.23;;;-1.30;99.90;;;;;;6160755;23;20099;-80
2022/12/15 07:42:05;;;;;;;22.40;11.50;;;-1.30;99.90;;;;;;6135309;23;20028;-80
2022/12/15 07:44:31;;;;;;;20.98;9.80;;;-1.40;99.90;;;;;;6160233;23;20017;-81
2022/12/15 07:46:56;;;;;;;23.52;10.90;;;-1.40;99.90;;;;;;6186746;23;20017;-80
2022/12/15 07:49:22;;;;;;;21.80;10.90;;;-1.40;99.90;;;;;;6160709;23;20315;-83
2022/12/15 07:51:48;;;;;;;19.90;9.23;;;-1.40;99.90;;;;;;6187386;23;20005;-82
2022/12/15 07:54:14;;;;;;;19.88;10.02;;;-1.40;99.90;;;;;;6160914;23;20386;-84
2022/12/15 07:56:41;;;;;;;24.85;10.95;;;-1.40;99.90;;;;;;6137033;23;20442;-82
2022/12/15 07:59:07;;;;;;;24.33;10.13;;;-1.40;99.90;;;;;;6187180;23;20334;-79
2022/12/15 08:01:36;;;;;;;17.10;8.57;;;-1.40;99.90;;;;;;6160267;23;20013;-82
2022/12/15 08:04:02;;;;;;;22.83;11.45;;;-1.40;99.90;;;;;;6161178;23;20019;-81
2022/12/15 08:06:28;;;;;;;24.63;10.27;;;-1.40;99.90;;;;;;6160913;23;20028;-81
2022/12/15 08:08:54;;;;;;;21.40;10.80;;;-1.40;99.90;;;;;;6160735;23;20343;-80
2022/12/15 08:11:21;;;;;;;24.60;10.40;;;-1.40;99.90;;;;;;6160774;23;20013;-83
2022/12/15 08:13:47;;;;;;;20.02;9.48;;;-1.40;99.90;;;;;;6188281;23;20010;-81
2022/12/15 08:16:13;;;;;;;28.27;11.10;;;-1.40;99.90;;;;;;6161527;23;20005;-81
2022/12/15 08:18:39;;;;;;;19.52;10.43;;;-1.30;99.90;;;;;;6136456;23;20013;-83
2022/12/15 08:21:07;;;;;;;19.52;10.30;;;-1.30;99.90;;;;;;6186781;23;20529;-82
2022/12/15 08:23:33;;;;;;;28.23;10.60;;;-1.30;99.90;;;;;;6187037;23;20104;-79
2022/12/15 08:26:04;;;;;;;25.30;11.80;;;-1.30;99.90;;;;;;6135108;23;20013;-79
2022/12/15 08:28:31;;;;;;;23.83;9.98;;;-1.20;99.90;;;;;;6159771;23;20462;-82
2022/12/15 08:31:08;;;;;;;21.60;11.13;;;-1.20;99.90;;;;;;6161588;23;20012;-83
2022/12/15 08:33:35;;;;;;;21.20;10.40;;;-1.10;99.90;;;;;;6188140;23;20418;-81
2022/12/15 08:36:14;;;;;;;;;;;;;;;;;;;;;
2022/12/15 08:38:42;;;;;;;24.52;10.50;;;-1.00;99.90;;;;;;6161492;23;20017;-83
2022/12/15 08:41:10;;;;;;;23.33;11.60;;;-1.00;99.90;;;;;;6189237;23;20024;-82
2022/12/15 08:43:36;;;;;;;23.45;11.02;;;-0.90;99.90;;;;;;6169075;23;20039;-80
2022/12/15 08:46:02;;;;;;;24.08;11.45;;;-0.90;99.90;;;;;;6199003;23;20020;-80
2022/12/15 08:48:28;;;;;;;22.60;9.82;;;-0.90;99.90;;;;;;6181745;23;20013;-80
2022/12/15 08:50:55;;;;;;;25.30;11.82;;;-0.80;99.90;;;;;;6172615;23;20011;-80
2022/12/15 08:53:21;;;;;;;22.52;10.40;;;-0.90;99.90;;;;;;6195097;23;20017;-85
2022/12/15 08:55:46;;;;;;;19.30;9.95;;;-0.80;99.90;;;;;;6193499;23;20035;-80
2022/12/15 08:58:12;;;;;;;27.88;11.90;;;-0.70;99.90;;;;;;6140409;23;20017;-83
2022/12/15 09:00:38;;;;;;;22.05;10.82;;;-0.70;99.90;;;;;;6162566;23;20480;-81
2022/12/15 09:03:04;;;;;;;23.58;11.23;;;-0.80;99.90;;;;;;6137563;23;20040;-83
2022/12/15 09:05:32;;;;;;;19.67;9.48;;;-0.70;99.90;;;;;;6138865;23;20059;-82
2022/12/15 09:07:58;;;;;;;20.40;11.13;;;-0.80;99.90;;;;;;6162918;23;20112;-82
2022/12/15 09:10:24;;;;;;;24.00;11.05;;;-0.80;99.90;;;;;;6162888;23;20454;-82
2022/12/15 09:12:50;;;;;;;24.60;10.70;;;-0.80;99.90;;;;;;6189293;23;20009;-84
2022/12/15 09:15:16;;;;;;;26.23;11.75;;;-0.70;99.90;;;;;;6137972;23;20013;-83
2022/12/15 09:17:43;;;;;;;25.85;11.43;;;-0.70;99.90;;;;;;6190048;23;20005;-85
2022/12/15 09:20:09;;;;;;;20.92;11.23;;;-0.70;99.90;;;;;;6163485;23;20435;-84
2022/12/15 09:22:35;;;;;;;23.27;12.23;;;-0.60;99.90;;;;;;6188956;23;20139;-81
2022/12/15 09:25:02;;;;;;;20.85;10.95;;;-0.60;99.90;;;;;;6161999;23;20041;-80
2022/12/15 09:27:29;;;;;;;20.17;10.30;;;-0.60;99.90;;;;;;6138648;23;20462;-81
2022/12/15 09:29:56;;;;;;;22.83;10.57;;;-0.50;99.90;;;;;;6189929;23;20012;-87
2022/12/15 09:32:21;;;;;;;24.80;10.23;;;-0.50;99.90;;;;;;6192368;23;20009;-85
2022/12/15 09:34:49;;;;;;;22.38;10.68;;;-0.50;99.90;;;;;;6190722;23;20012;-81
2022/12/15 09:37:29;;;;;;;21.55;9.65;;;-0.50;99.90;;;;;;6165306;23;20140;-85
2022/12/15 09:39:55;;;;;;;22.17;10.40;;;-0.40;99.90;;;;;;6164793;23;20020;-86
2022/12/15 09:42:27;;;;;;;23.40;11.77;;;-0.50;99.90;;;;;;6141428;23;20013;-86
2022/12/15 09:45:24;;;;;;;21.25;10.68;;;-0.40;99.90;;;;;;6165020;23;20393;-85
2022/12/15 09:48:04;;;;;;;20.13;10.48;;;-0.40;99.90;;;;;;6165653;23;20104;-85
2022/12/15 09:50:41;;;;;;;20.27;10.95;;;-0.40;99.90;;;;;;6164262;23;20010;-85
2022/12/15 09:53:13;;;;;;;18.95;9.75;;;-0.40;99.90;;;;;;6139273;23;20064;-82
2022/12/15 09:55:38;;;;;;;28.27;10.52;;;-0.40;99.90;;;;;;6163912;23;20334;-85
2022/12/15 09:58:32;;;;;;;18.02;7.50;;;-0.30;99.90;;;;;;6163514;23;20045;-83
2022/12/15 10:01:03;;;;;;;21.25;10.52;;;-0.30;99.90;;;;;;6163513;23;20368;-81
2022/12/15 10:04:07;;;;;;;20.63;10.48;;;-0.20;99.90;;;;;;6162227;23;20019;-81
2022/12/15 10:06:48;;;;;;;22.77;10.02;;;-0.10;99.90;;;;;;6118894;23;20040;-80
2022/12/15 10:09:21;;;;;;;19.48;10.18;;;0.00;99.90;;;;;;6187420;23;20443;-83
2022/12/15 10:11:54;;;;;;;18.70;9.98;;;0.00;99.90;;;;;;6187908;23;20327;-81
2022/12/15 10:15:13;;;;;;;19.48;9.40;;;0.10;99.90;;;;;;6162233;23;20088;-80
2022/12/15 10:17:48;;;;;;;23.75;9.07;;;0.20;99.90;;;;;;6043216;23;20523;-82
2022/12/15 10:20:19;;;;;;;17.63;9.18;;;0.30;99.90;;;;;;6157835;23;20016;-81
2022/12/15 10:22:45;;;;;;;19.50;10.02;;;0.40;99.90;;;;;;6187408;23;20507;-80
2022/12/15 10:25:18;;;;;;;17.73;9.70;;;0.50;99.90;;;;;;6186198;23;20447;-81
2022/12/15 10:28:14;;;;;;;17.25;7.93;;;0.50;99.90;;;;;;6160891;23;20358;-80
2022/12/15 10:31:24;;;;;;;19.67;9.20;;;0.60;99.90;;;;;;6186652;23;20180;-79
2022/12/15 10:34:00;;;;;;;21.85;10.00;;;0.70;99.90;;;;;;6117682;23;20017;-80
2022/12/15 10:36:25;;;;;;;19.60;9.07;;;0.80;99.90;;;;;;6161250;23;20016;-80
2022/12/15 10:38:51;;;;;;;19.98;9.38;;;0.90;99.90;;;;;;6186786;23;20473;-81
2022/12/15 10:41:21;;;;;;;22.00;9.25;;;1.10;99.90;;;;;;6135278;23;20017;-80
2022/12/15 10:43:49;;;;;;;17.65;8.02;;;1.10;99.90;;;;;;6159792;23;20386;-81
2022/12/15 10:46:18;;;;;;;19.00;8.57;;;1.20;99.90;;;;;;6160358;23;20017;-81
2022/12/15 10:49:05;;;;;;;17.35;9.20;;;1.30;99.90;;;;;;6160377;23;20032;-78
2022/12/15 10:51:53;;;;;;;19.75;9.10;;;1.50;99.90;;;;;;6140091;23;20088;-80
2022/12/15 10:54:20;;;;;;;23.98;9.40;;;1.60;99.90;;;;;;6187638;23;20343;-80
2022/12/15 10:56:50;;;;;;;29.92;8.93;;;1.70;99.90;;;;;;6187322;23;20017;-80
2022/12/15 10:59:33;;;;;;;16.98;8.15;;;1.80;99.90;;;;;;6186889;23;20020;-80
2022/12/15 11:02:24;;;;;;;19.58;8.10;;;1.90;99.90;;;;;;6135246;23;20013;-81
2022/12/15 11:05:05;;;;;;;15.23;7.90;;;2.00;99.90;;;;;;6160192;23;20064;-80
2022/12/15 11:07:42;;;;;;;17.38;8.13;;;2.10;99.90;;;;;;6159575;23;20013;-79
2022/12/15 11:10:22;;;;;;;18.55;7.97;;;2.20;99.90;;;;;;6159172;23;20033;-79
2022/12/15 11:12:57;;;;;;;14.32;7.70;;;2.30;99.90;;;;;;6159764;23;20021;-80
2022/12/15 11:15:22;;;;;;;18.90;8.32;;;2.40;99.90;;;;;;6185734;23;20013;-80
2022/12/15 11:18:13;;;;;;;21.35;8.80;;;2.40;99.90;;;;;;6185509;23;20016;-79
2022/12/15 11:21:04;;;;;;;23.77;8.52;;;2.50;99.90;;;;;;6185949;23;20334;-79
2022/12/15 11:23:30;;;;;;;15.40;7.95;;;2.60;99.90;;;;;;6184540;23;20055;-81
2022/12/15 11:26:22;;;;;;;17.88;8.00;;;2.60;99.90;;;;;;6159554;23;20068;-79
2022/12/15 11:28:55;;;;;;;18.45;7.88;;;2.60;99.90;;;;;;6133699;23;20084;-80
2022/12/15 11:31:23;;;;;;;13.45;7.32;;;2.70;99.90;;;;;;6185602;23;20375;-79
2022/12/15 11:34:05;;;;;;;15.82;7.95;;;2.70;99.90;;;;;;6186011;23;20014;-80
2022/12/15 11:36:49;;;;;;;14.07;7.07;;;2.80;99.90;;;;;;6065050;23;20122;-80
2022/12/15 11:39:53;;;;;;;15.35;6.25;;;2.90;99.90;;;;;;6185890;23;20017;-79
2022/12/15 11:42:45;;;;;;;19.27;7.40;;;3.00;99.90;;;;;;6158941;23;20032;-80
2022/12/15 11:45:42;;;;;;;13.32;7.13;;;3.00;99.90;;;;;;6159017;23;20013;-81
2022/12/15 11:48:16;;;;;;;15.40;7.43;;;3.00;99.90;;;;;;6185940;23;20089;-79
2022/12/15 11:50:52;;;;;;;17.30;8.10;;;3.10;99.90;;;;;;6160247;23;20058;-80
2022/12/15 11:53:23;;;;;;;20.00;8.60;;;3.20;99.90;;;;;;6186853;23;20063;-78
2022/12/15 11:56:20;;;;;;;19.50;8.00;;;3.30;99.90;;;;;;6135274;23;20044;-80
2022/12/15 11:59:23;;;;;;;18.27;7.55;;;3.30;99.90;;;;;;6159663;23;20021;-80
2022/12/15 12:02:17;;;;;;;17.95;7.90;;;3.30;99.90;;;;;;6134279;23;20017;-81
2022/12/15 12:05:12;;;;;;;14.75;7.70;;;3.40;99.90;;;;;;6160623;23;20017;-80
2022/12/15 12:07:51;;;;;;;16.90;7.40;;;3.50;99.90;;;;;;6188472;23;20017;-80
2022/12/15 12:10:30;;;;;;;15.25;7.10;;;3.50;99.90;;;;;;6136643;23;20343;-80
2022/12/15 12:13:13;;;;;;;15.40;6.95;;;3.60;99.90;;;;;;6161682;23;20063;-79
2022/12/15 12:16:30;;;;;;;17.63;7.38;;;3.70;99.90;;;;;;6187979;23;20015;-79
2022/12/15 12:19:17;;;;;;;13.38;6.80;;;3.70;99.90;;;;;;6067701;23;20019;-79
2022/12/15 12:21:45;;;;;;;22.45;7.70;;;3.80;99.90;;;;;;6187790;23;20063;-79
2022/12/15 12:24:14;;;;;;;17.27;7.07;;;3.80;99.90;;;;;;6187947;23;20501;-79
2022/12/15 12:26:53;;;;;;;14.25;7.30;;;3.90;99.90;;;;;;6161564;23;20459;-80
2022/12/15 12:29:31;;;;;;;17.35;7.45;;;3.80;99.90;;;;;;6188305;23;20044;-80
2022/12/15 12:32:11;;;;;;;14.90;6.43;;;3.70;99.90;;;;;;6161309;23;20067;-80
2022/12/15 12:35:01;;;;;;;17.67;7.95;;;3.60;99.90;;;;;;6186301;23;20013;-81
2022/12/15 12:37:42;;;;;;;18.83;6.88;;;3.70;99.90;;;;;;6188165;23;20064;-80
2022/12/15 12:40:30;;;;;;;15.45;7.00;;;3.80;99.90;;;;;;6187663;23;20414;-81
2022/12/15 12:42:57;;;;;;;19.67;7.45;;;3.90;99.90;;;;;;6188664;23;20087;-80
2022/12/15 12:45:46;;;;;;;16.33;7.22;;;4.00;99.90;;;;;;6163176;23;20013;-81
2022/12/15 12:48:30;;;;;;;16.30;8.07;;;4.00;99.90;;;;;;6169138;23;20023;-80
2022/12/15 12:51:26;;;;;;;15.75;7.07;;;4.00;99.90;;;;;;6168694;23;20017;-78
2022/12/15 12:53:53;;;;;;;13.95;6.95;;;4.00;99.90;;;;;;6193096;23;20017;-81
2022/12/15 12:56:47;;;;;;;17.00;7.38;;;4.00;99.90;;;;;;6188556;23;20005;-81
2022/12/15 12:59:35;;;;;;;16.77;8.15;;;4.10;99.90;;;;;;6147978;23;20084;-81
2022/12/15 13:02:10;;;;;;;20.23;8.23;;;4.40;99.90;;;;;;6187940;23;20048;-80
2022/12/15 13:04:41;;;;;;;18.58;7.35;;;4.70;99.90;;;;;;6162732;23;20447;-80
2022/12/15 13:07:31;;;;;;;19.88;7.65;;;4.70;99.90;;;;;;6188473;23;20019;-78
2022/12/15 13:10:17;;;;;;;18.45;7.28;;;4.50;99.90;;;;;;6188312;23;20044;-80
2022/12/15 13:12:45;;;;;;;22.17;8.10;;;4.60;99.90;;;;;;6188903;23;20020;-83
2022/12/15 13:15:22;;;;;;;21.60;8.15;;;4.80;99.90;;;;;;6188561;23;20088;-82
2022/12/15 13:17:53;;;;;;;16.35;8.10;;;4.90;99.90;;;;;;6137725;23;20016;-80
2022/12/15 13:20:23;;;;;;;22.73;8.75;;;4.80;99.90;;;;;;6161295;23;20020;-82
2022/12/15 13:22:49;;;;;;;23.10;9.73;;;4.60;99.90;;;;;;6161502;23;20390;-79
2022/12/15 13:25:26;;;;;;;18.38;8.75;;;4.60;99.90;;;;;;6136744;23;20067;-83
2022/12/15 13:27:56;;;;;;;19.70;8.73;;;4.80;99.90;;;;;;6188309;23;20139;-81
2022/12/15 13:30:23;;;;;;;20.42;8.48;;;4.90;99.90;;;;;;6188438;23;20067;-81
2022/12/15 13:32:53;;;;;;;22.48;9.40;;;4.90;99.90;;;;;;6188842;23;20036;-81
2022/12/15 13:35:30;;;;;;;18.35;8.95;;;5.00;99.90;;;;;;6162169;23;20013;-80
2022/12/15 13:38:06;;;;;;;19.73;7.97;;;4.90;99.90;;;;;;6161781;23;20021;-81
2022/12/15 13:40:51;;;;;;;15.18;8.05;;;4.90;99.90;;;;;;6161871;23;20083;-82
2022/12/15 13:43:39;;;;;;;15.75;7.78;;;5.10;99.90;;;;;;6187029;23;20013;-85
2022/12/15 13:46:16;;;;;;;16.02;7.32;;;5.30;99.90;;;;;;6186502;23;20040;-84
2022/12/15 13:48:45;;;;;;;18.77;6.93;;;5.30;99.90;;;;;;6136524;23;20017;-87
2022/12/15 13:51:40;;;;;;;13.30;7.78;;;4.90;99.90;;;;;;6160947;23;20040;-84
2022/12/15 13:54:26;;;;;;;18.30;8.30;;;4.70;99.90;;;;;;6159607;23;20017;-86
2022/12/15 13:57:00;;;;;;;16.73;7.60;;;4.60;99.90;;;;;;6164633;23;20017;-85
2022/12/15 13:59:29;;;;;;;16.17;8.18;;;4.40;99.90;;;;;;6174284;23;20332;-87
2022/12/15 14:01:55;;;;;;;14.57;7.90;;;4.20;99.90;;;;;;6179821;23;20016;-83
2022/12/15 14:04:21;;;;;;;23.83;9.90;;;3.90;99.90;;;;;;6211392;23;20013;-83
2022/12/15 14:06:55;;;;;;;15.55;7.97;;;3.70;99.90;;;;;;6201532;23;20067;-81
2022/12/15 14:09:29;;;;;;;18.35;8.65;;;3.50;99.90;;;;;;6190787;23;20009;-85
2022/12/15 14:11:58;;;;;;;20.02;8.88;;;3.50;99.90;;;;;;6163082;23;20013;-79
2022/12/15 14:14:28;;;;;;;17.02;8.98;;;3.60;99.90;;;;;;6101397;23;20366;-83
2022/12/15 14:16:58;;;;;;;18.38;9.55;;;3.60;99.90;;;;;;6101226;23;20018;-81
2022/12/15 14:19:24;;;;;;;21.70;9.98;;;3.60;99.90;;;;;;6100609;23;20010;-82
2022/12/15 14:21:55;;;;;;;21.13;10.73;;;3.30;99.90;;;;;;6099802;23;20128;-81
2022/12/15 14:24:32;;;;;;;18.70;10.23;;;3.20;99.90;;;;;;6100992;23;20017;-82
2022/12/15 14:26:58;;;;;;;23.95;11.60;;;3.10;99.90;;;;;;6124988;23;20317;-83
2022/12/15 14:29:24;;;;;;;23.13;11.50;;;3.00;99.90;;;;;;6125320;23;20026;-82
2022/12/15 14:31:56;;;;;;;26.05;11.35;;;2.90;99.90;;;;;;6124582;23;20065;-80
2022/12/15 14:34:40;;;;;;;25.58;10.52;;;2.90;99.90;;;;;;6125218;23;20022;-79
2022/12/15 14:37:17;;;;;;;26.23;11.32;;;2.80;99.90;;;;;;6100607;23;20466;-82
2022/12/15 14:39:46;;;;;;;23.05;10.70;;;2.70;99.90;;;;;;6101168;23;20049;-79
2022/12/15 14:42:22;;;;;;;18.95;10.45;;;2.60;99.90;;;;;;6125421;23;20022;-83
2022/12/15 14:44:48;;;;;;;;;;;2.60;99.90;;;;;;6116968;23;20017;-80
2022/12/15 14:47:25;;;;;;;;;;;2.50;99.90;;;;;;6160591;23;19912;-80
2022/12/15 14:49:54;;;;;;;19.23;9.50;;;2.50;99.90;;;;;;6160273;23;19912;-81
2022/12/15 14:52:35;;;;;;;20.67;11.02;;;2.50;99.90;;;;;;6159787;23;20013;-80
2022/12/15 14:55:03;;;;;;;25.02;11.00;;;2.40;99.90;;;;;;6160475;23;20021;-81
2022/12/15 14:57:42;;;;;;;28.25;11.05;;;2.40;99.90;;;;;;6159970;23;20009;-81
2022/12/15 15:00:34;;;;;;;23.27;12.10;;;2.40;99.90;;;;;;6187231;23;20051;-81
2022/12/15 15:03:21;;;;;;;21.35;9.98;;;2.30;99.90;;;;;;6187294;23;20319;-82
2022/12/15 15:06:10;;;;;;;23.42;12.23;;;2.30;99.90;;;;;;6161870;23;20083;-83
2022/12/15 15:08:44;;;;;;;26.50;11.57;;;2.20;99.90;;;;;;6167849;23;20021;-83
2022/12/15 15:11:19;;;;;;;24.17;11.70;;;2.10;99.90;;;;;;6161548;23;20040;-79
2022/12/15 15:13:45;;;;;;;25.30;12.05;;;2.20;99.90;;;;;;6187210;23;20039;-84
2022/12/15 15:16:17;;;;;;;22.13;12.15;;;2.10;99.90;;;;;;6160064;23;20013;-82
2022/12/15 15:18:47;;;;;;;28.63;12.48;;;2.10;99.90;;;;;;6186395;23;20005;-81
2022/12/15 15:21:22;;;;;;;26.63;11.93;;;2.10;99.90;;;;;;6160000;23;20358;-84
2022/12/15 15:24:01;;;;;;;;;;;2.10;99.90;;;;;;6187798;23;20040;-81
2022/12/15 15:26:28;;;;;;;26.05;12.70;;;2.00;99.90;;;;;;6186525;23;19912;-82
2022/12/15 15:28:54;;;;;;;24.98;13.23;;;2.00;99.90;;;;;;6159713;23;20021;-79
2022/12/15 15:31:34;;;;;;;26.10;11.02;;;2.00;99.90;;;;;;6160303;23;20372;-83
2022/12/15 15:34:00;;;;;;;22.92;12.52;;;2.10;99.90;;;;;;6159752;23;20458;-82
2022/12/15 15:36:35;;;;;;;23.58;9.35;;;2.10;99.90;;;;;;6159915;23;20044;-83
2022/12/15 15:39:09;;;;;;;24.00;11.38;;;2.00;99.90;;;;;;6161644;23;20316;-81
2022/12/15 15:41:37;;;;;;;25.70;11.63;;;2.10;99.90;;;;;;6190318;23;20017;-81
2022/12/15 15:44:13;;;;;;;25.65;11.68;;;2.10;99.90;;;;;;6138036;23;20419;-83
2022/12/15 15:46:46;;;;;;;25.83;12.75;;;2.10;99.90;;;;;;6138484;23;20021;-80
2022/12/15 15:49:18;;;;;;;21.35;11.02;;;2.00;99.90;;;;;;6163381;23;20049;-84
2022/12/15 15:51:44;;;;;;;24.10;12.48;;;2.00;99.90;;;;;;6163508;23;20017;-85
2022/12/15 15:54:16;;;;;;;27.60;12.52;;;2.00;99.90;;;;;;6190972;23;20458;-81
2022/12/15 15:56:42;;;;;;;25.08;12.23;;;2.00;99.90;;;;;;6164165;23;20017;-84
2022/12/15 15:59:16;;;;;;;28.52;12.55;;;2.00;99.90;;;;;;6164466;23;20463;-82
2022/12/15 16:01:43;;;;;;;29.48;14.02;;;2.00;99.90;;;;;;6163846;23;20100;-84
2022/12/15 16:04:09;;;;;;;27.77;13.65;;;1.90;99.90;;;;;;6164040;23;20028;-83
2022/12/15 16:06:35;;;;;;;28.52;13.52;;;1.90;99.90;;;;;;6165892;23;20017;-84
2022/12/15 16:09:01;;;;;;;25.10;13.63;;;1.90;99.90;;;;;;6164656;23;20096;-83
2022/12/15 16:11:31;;;;;;;28.10;14.10;;;1.80;99.90;;;;;;6164181;23;20009;-80
2022/12/15 16:13:57;;;;;;;25.48;13.63;;;1.70;99.90;;;;;;6163999;23;20035;-82
2022/12/15 16:16:29;;;;;;;26.65;13.75;;;1.70;99.90;;;;;;6164480;23;20088;-83
2022/12/15 16:18:55;;;;;;;24.80;13.65;;;1.60;99.90;;;;;;6164366;23;20023;-84
2022/12/15 16:21:24;;;;;;;26.50;13.40;;;1.60;99.90;;;;;;6165229;23;20013;-81
2022/12/15 16:23:52;;;;;;;27.52;14.48;;;1.50;99.90;;;;;;6190665;23;20020;-83
2022/12/15 16:26:27;;;;;;;29.05;14.20;;;1.50;99.90;;;;;;6141448;23;20024;-79
2022/12/15 16:28:53;;;;;;;29.85;15.20;;;1.50;99.90;;;;;;6164599;23;20013;-85
2022/12/15 16:31:35;;;;;;;28.08;14.73;;;1.40;99.90;;;;;;6196018;23;20013;-85
2022/12/15 16:34:02;;;;;;;30.45;14.20;;;1.40;99.90;;;;;;6167347;23;20040;-84
2022/12/15 16:36:28;;;;;;;31.40;14.75;;;1.40;99.90;;;;;;6167260;23;20020;-87
2022/12/15 16:38:54;;;;;;;28.15;16.20;;;1.40;99.90;;;;;;6167224;23;20009;-85
2022/12/15 16:41:22;;;;;;;31.20;14.48;;;1.40;99.90;;;;;;6193253;23;20443;-84
2022/12/15 16:43:48;;;;;;;29.35;15.30;;;1.40;99.90;;;;;;6141672;23;20435;-88
2022/12/15 16:46:14;;;;;;;31.17;15.60;;;1.30;99.90;;;;;;6170464;23;20013;-86
2022/12/15 16:48:41;;;;;;;30.60;16.08;;;1.30;99.90;;;;;;6196183;23;20466;-85
2022/12/15 16:51:09;;;;;;;31.30;16.48;;;1.30;99.90;;;;;;6169149;23;20032;-85
2022/12/15 16:53:39;;;;;;;33.33;16.50;;;1.30;99.90;;;;;;6146947;23;20019;-86
2022/12/15 16:56:07;;;;;;;31.02;16.95;;;1.30;99.90;;;;;;6145095;23;20016;-87
2022/12/15 16:58:35;;;;;;;30.35;16.60;;;1.30;99.90;;;;;;6143195;23;20017;-85
2022/12/15 17:01:02;;;;;;;33.80;16.85;;;1.20;99.90;;;;;;6194131;23;20012;-85
2022/12/15 17:03:29;;;;;;;31.00;16.35;;;1.20;99.90;;;;;;6170269;23;20027;-85
2022/12/15 17:06:00;;;;;;;39.25;18.70;;;1.20;99.90;;;;;;6143183;23;20024;-84
2022/12/15 17:09:16;;;;;;;34.35;17.20;;;1.20;99.90;;;;;;6167618;23;20013;-86
2022/12/15 17:11:38;;;;;;;31.65;17.75;;;1.10;99.90;;;;;;6165356;23;20385;-86
2022/12/15 17:14:15;;;;;;;28.13;15.88;;;1.10;99.90;;;;;;6169066;23;20024;-87
2022/12/15 17:16:40;;;;;;;34.03;17.38;;;1.00;99.90;;;;;;6166143;23;20439;-87
2022/12/15 17:19:09;;;;;;;34.33;18.70;;;1.00;99.90;;;;;;6168056;23;20070;-87
2022/12/15 17:21:46;;;;;;;35.20;18.90;;;1.00;99.90;;;;;;6167252;23;20100;-86
2022/12/15 17:24:16;;;;;;;36.35;18.10;;;1.00;99.90;;;;;;6141920;23;20040;-88
2022/12/15 17:26:43;;;;;;;38.30;17.80;;;0.90;99.90;;;;;;6193943;23;20009;-87
2022/12/15 17:29:17;;;;;;;34.42;18.17;;;0.90;99.90;;;;;;6167958;23;20136;-84
2022/12/15 17:31:43;;;;;;;37.90;19.15;;;0.90;99.90;;;;;;6168163;23;20009;-86
2022/12/15 17:34:32;;;;;;;35.67;19.20;;;0.80;99.90;;;;;;6142199;23;20370;-85
2022/12/15 17:37:23;;;;;;;35.35;19.80;;;0.80;99.90;;;;;;6142845;23;20013;-89
2022/12/15 17:39:49;;;;;;;42.53;21.20;;;0.80;99.90;;;;;;6140908;23;20017;-85
2022/12/15 17:42:19;;;;;;;39.85;19.30;;;0.80;99.90;;;;;;6190995;23;20079;-85
2022/12/15 17:44:46;;;;;;;36.90;19.70;;;0.80;99.90;;;;;;6165555;23;20044;-84
2022/12/15 17:47:13;;;;;;;32.95;17.50;;;0.70;99.90;;;;;;6165298;23;20024;-82
2022/12/15 17:49:39;;;;;;;44.80;23.10;;;0.70;99.90;;;;;;6166149;23;20027;-85
2022/12/15 17:52:24;;;;;;;39.78;21.75;;;0.70;99.90;;;;;;6165628;23;20044;-84
2022/12/15 17:54:51;;;;;;;43.45;22.58;;;0.70;99.90;;;;;;6142380;23;20027;-84
2022/12/15 17:57:16;;;;;;;40.58;22.27;;;0.70;99.90;;;;;;6167066;23;20058;-84
2022/12/15 17:59:42;;;;;;;42.30;23.00;;;0.70;99.90;;;;;;6165839;23;20092;-83
2022/12/15 18:02:13;;;;;;;49.75;23.52;;;0.70;99.90;;;;;;6165985;23;20052;-80
2022/12/15 18:04:40;;;;;;;44.85;23.95;;;0.70;99.90;;;;;;6165727;23;20079;-81
2022/12/15 18:07:21;;;;;;;48.13;25.08;;;0.70;99.90;;;;;;6166497;23;20013;-83
2022/12/15 18:09:48;;;;;;;49.17;25.42;;;0.60;99.90;;;;;;6167933;23;20040;-81
2022/12/15 18:12:21;;;;;;;47.13;25.65;;;0.60;99.90;;;;;;6195778;23;20013;-85